sensor_id;sensor_type;location;lat;lon;timestamp;pressure;altitude;pressure_sealevel;temperature;humidity
80149;BME280;69473;42.426;26.644;2023-05-07T00:01:43;99172.25;;;13.03;58.89
80149;BME280;69473;42.426;26.644;2023-05-07T00:04:09;99181.72;;;13.10;59.00
80149;BME280;69473;42.426;26.644;2023-05-07T00:06:35;99182.63;;;13.05;59.40
80149;BME280;69473;42.426;26.644;2023-05-07T00:09:00;99187.78;;;13.08;59.01
80149;BME280;69473;42.426;26.644;2023-05-07T00:11:27;99180.13;;;12.97;59.64
80149;BME280;69473;42.426;26.644;2023-05-07T00:13:53;99187.81;;;13.05;59.23
80149;BME280;69473;42.426;26.644;2023-05-07T00:16:19;99180.97;;;12.99;58.99
80149;BME280;69473;42.426;26.644;2023-05-07T00:18:44;99182.69;;;12.99;58.58
80149;BME280;69473;42.426;26.644;2023-05-07T00:21:10;99185.41;;;12.88;59.00
80149;BME280;69473;42.426;26.644;2023-05-07T00:23:36;99181.84;;;12.95;58.07
80149;BME280;69473;42.426;26.644;2023-05-07T00:26:02;99185.25;;;13.03;57.11
80149;BME280;69473;42.426;26.644;2023-05-07T00:28:27;99176.63;;;12.98;57.92
80149;BME280;69473;42.426;26.644;2023-05-07T00:30:53;99186.13;;;13.04;56.77
80149;BME280;69473;42.426;26.644;2023-05-07T00:33:18;99183.47;;;13.08;56.81
80149;BME280;69473;42.426;26.644;2023-05-07T00:35:45;99181.75;;;13.04;56.51
80149;BME280;69473;42.426;26.644;2023-05-07T00:38:11;99185.25;;;13.03;56.15
80149;BME280;69473;42.426;26.644;2023-05-07T00:40:37;99184.38;;;13.04;55.90
80149;BME280;69473;42.426;26.644;2023-05-07T00:43:02;99181.69;;;13.13;54.86
80149;BME280;69473;42.426;26.644;2023-05-07T00:45:29;99178.31;;;13.05;54.56
80149;BME280;69473;42.426;26.644;2023-05-07T00:47:59;99181.75;;;13.07;55.45
80149;BME280;69473;42.426;26.644;2023-05-07T00:50:28;99185.16;;;13.12;53.70
80149;BME280;69473;42.426;26.644;2023-05-07T00:52:55;99178.28;;;13.08;54.30
80149;BME280;69473;42.426;26.644;2023-05-07T00:55:22;99177.44;;;13.02;54.81
80149;BME280;69473;42.426;26.644;2023-05-07T00:57:49;99174.78;;;13.09;54.14
80149;BME280;69473;42.426;26.644;2023-05-07T01:00:16;99176.50;;;13.10;53.45
80149;BME280;69473;42.426;26.644;2023-05-07T01:02:43;99174.91;;;12.97;55.18
80149;BME280;69473;42.426;26.644;2023-05-07T01:05:11;99173.97;;;13.04;53.22
80149;BME280;69473;42.426;26.644;2023-05-07T01:07:40;99186.91;;;13.10;53.77
80149;BME280;69473;42.426;26.644;2023-05-07T01:10:09;99183.31;;;13.21;54.02
80149;BME280;69473;42.426;26.644;2023-05-07T01:12:37;99186.81;;;13.20;53.21
80149;BME280;69473;42.426;26.644;2023-05-07T01:15:06;99159.25;;;13.03;53.06
80149;BME280;69473;42.426;26.644;2023-05-07T01:17:34;99181.69;;;13.13;52.17
80149;BME280;69473;42.426;26.644;2023-05-07T01:20:01;99178.09;;;13.24;51.86
80149;BME280;69473;42.426;26.644;2023-05-07T01:22:30;99180.69;;;13.28;52.82
80149;BME280;69473;42.426;26.644;2023-05-07T01:24:58;99173.00;;;13.11;51.75
80149;BME280;69473;42.426;26.644;2023-05-07T01:27:25;99169.56;;;13.12;52.08
80149;BME280;69473;42.426;26.644;2023-05-07T01:29:51;99175.59;;;13.14;53.00
80149;BME280;69473;42.426;26.644;2023-05-07T01:32:21;99172.97;;;13.14;51.54
80149;BME280;69473;42.426;26.644;2023-05-07T01:34:52;99168.66;;;13.15;51.38
80149;BME280;69473;42.426;26.644;2023-05-07T01:37:18;99168.72;;;13.09;52.66
80149;BME280;69473;42.426;26.644;2023-05-07T01:39:44;99168.69;;;13.10;52.58
80149;BME280;69473;42.426;26.644;2023-05-07T01:42:10;99166.19;;;13.01;52.98
80149;BME280;69473;42.426;26.644;2023-05-07T01:44:35;99169.72;;;12.97;52.12
80149;BME280;69473;42.426;26.644;2023-05-07T01:47:01;99162.81;;;12.93;52.49
80149;BME280;69473;42.426;26.644;2023-05-07T01:49:28;99168.03;;;12.93;53.96
80149;BME280;69473;42.426;26.644;2023-05-07T01:51:53;99172.25;;;13.02;52.15
80149;BME280;69473;42.426;26.644;2023-05-07T01:54:19;99166.22;;;12.98;52.57
80149;BME280;69473;42.426;26.644;2023-05-07T01:56:45;99160.16;;;12.98;52.65
80149;BME280;69473;42.426;26.644;2023-05-07T01:59:13;99157.59;;;12.96;53.48
80149;BME280;69473;42.426;26.644;2023-05-07T02:01:38;99162.91;;;12.84;53.57
80149;BME280;69473;42.426;26.644;2023-05-07T02:04:04;99158.66;;;12.75;52.46
80149;BME280;69473;42.426;26.644;2023-05-07T02:06:29;99159.50;;;12.76;53.12
80149;BME280;69473;42.426;26.644;2023-05-07T02:08:56;99155.78;;;13.01;51.90
80149;BME280;69473;42.426;26.644;2023-05-07T02:11:21;99149.03;;;12.85;52.50
80149;BME280;69473;42.426;26.644;2023-05-07T02:13:47;99145.63;;;12.77;52.85
80149;BME280;69473;42.426;26.644;2023-05-07T02:16:12;99154.22;;;12.85;53.01
80149;BME280;69473;42.426;26.644;2023-05-07T02:18:39;99161.28;;;12.70;53.34
80149;BME280;69473;42.426;26.644;2023-05-07T02:21:05;99150.94;;;12.63;53.71
80149;BME280;69473;42.426;26.644;2023-05-07T02:23:30;99155.38;;;12.53;53.28
80149;BME280;69473;42.426;26.644;2023-05-07T02:25:56;99158.78;;;12.58;52.87
80149;BME280;69473;42.426;26.644;2023-05-07T02:28:21;99159.69;;;12.54;53.02
80149;BME280;69473;42.426;26.644;2023-05-07T02:30:47;99116.59;;;12.29;52.83
80149;BME280;69473;42.426;26.644;2023-05-07T02:33:12;99154.50;;;12.51;53.78
80149;BME280;69473;42.426;26.644;2023-05-07T02:35:39;99152.72;;;12.59;52.65
80149;BME280;69473;42.426;26.644;2023-05-07T02:38:04;99159.59;;;12.63;52.47
80149;BME280;69473;42.426;26.644;2023-05-07T02:40:30;99160.56;;;12.52;51.84
80149;BME280;69473;42.426;26.644;2023-05-07T02:42:59;99153.59;;;12.55;52.58
80149;BME280;69473;42.426;26.644;2023-05-07T02:45:25;99155.41;;;12.47;52.24
80149;BME280;69473;42.426;26.644;2023-05-07T02:47:50;99148.56;;;12.40;52.20
80149;BME280;69473;42.426;26.644;2023-05-07T02:50:16;99149.34;;;12.45;52.49
80149;BME280;69473;42.426;26.644;2023-05-07T02:52:41;99142.44;;;12.47;52.77
80149;BME280;69473;42.426;26.644;2023-05-07T02:55:07;99157.19;;;12.39;52.87
80149;BME280;69473;42.426;26.644;2023-05-07T02:57:33;99156.38;;;12.37;52.62
80149;BME280;69473;42.426;26.644;2023-05-07T02:59:58;99163.19;;;12.50;52.06
80149;BME280;69473;42.426;26.644;2023-05-07T03:02:24;99153.78;;;12.37;52.69
80149;BME280;69473;42.426;26.644;2023-05-07T03:04:50;99159.84;;;12.33;52.51
80149;BME280;69473;42.426;26.644;2023-05-07T03:07:15;99148.63;;;12.26;53.85
80149;BME280;69473;42.426;26.644;2023-05-07T03:09:41;99154.59;;;12.39;52.04
80149;BME280;69473;42.426;26.644;2023-05-07T03:12:06;99127.03;;;12.22;52.06
80149;BME280;69473;42.426;26.644;2023-05-07T03:14:32;99169.34;;;12.40;52.34
80149;BME280;69473;42.426;26.644;2023-05-07T03:16:57;99168.44;;;12.44;53.09
80149;BME280;69473;42.426;26.644;2023-05-07T03:19:23;99165.00;;;12.39;53.22
80149;BME280;69473;42.426;26.644;2023-05-07T03:21:48;99163.31;;;12.32;53.29
80149;BME280;69473;42.426;26.644;2023-05-07T03:24:14;99169.19;;;12.55;52.88
80149;BME280;69473;42.426;26.644;2023-05-07T03:26:39;99171.78;;;12.55;51.94
80149;BME280;69473;42.426;26.644;2023-05-07T03:29:05;99177.03;;;12.49;52.37
80149;BME280;69473;42.426;26.644;2023-05-07T03:31:31;99184.03;;;12.44;52.33
80149;BME280;69473;42.426;26.644;2023-05-07T03:33:57;99190.00;;;12.57;52.29
80149;BME280;69473;42.426;26.644;2023-05-07T03:36:23;99191.69;;;12.62;52.88
80149;BME280;69473;42.426;26.644;2023-05-07T03:38:49;99193.44;;;12.57;52.63
80149;BME280;69473;42.426;26.644;2023-05-07T03:41:15;99200.44;;;12.51;51.96
80149;BME280;69473;42.426;26.644;2023-05-07T03:43:41;99202.03;;;12.68;51.56
80149;BME280;69473;42.426;26.644;2023-05-07T03:46:07;99196.88;;;12.61;52.09
80149;BME280;69473;42.426;26.644;2023-05-07T03:48:32;99192.59;;;12.55;52.27
80149;BME280;69473;42.426;26.644;2023-05-07T03:50:58;99207.19;;;12.73;52.05
80149;BME280;69473;42.426;26.644;2023-05-07T03:53:24;99203.38;;;13.11;51.15
80149;BME280;69473;42.426;26.644;2023-05-07T03:55:50;99210.78;;;13.55;50.18
80149;BME280;69473;42.426;26.644;2023-05-07T03:58:16;99214.75;;;13.84;49.91
80149;BME280;69473;42.426;26.644;2023-05-07T04:00:42;99208.59;;;13.91;49.10
80149;BME280;69473;42.426;26.644;2023-05-07T04:03:07;99208.44;;;14.03;49.38
80149;BME280;69473;42.426;26.644;2023-05-07T04:05:33;99211.81;;;14.12;48.53
80149;BME280;69473;42.426;26.644;2023-05-07T04:07:59;99216.84;;;14.24;49.26
80149;BME280;69473;42.426;26.644;2023-05-07T04:10:25;99216.50;;;14.45;47.80
80149;BME280;69473;42.426;26.644;2023-05-07T04:12:51;99216.47;;;14.48;47.94
80149;BME280;69473;42.426;26.644;2023-05-07T04:15:17;99216.22;;;14.67;48.19
80149;BME280;69473;42.426;26.644;2023-05-07T04:17:42;99215.34;;;14.68;47.25
80149;BME280;69473;42.426;26.644;2023-05-07T04:20:14;99221.34;;;14.73;47.47
80149;BME280;69473;42.426;26.644;2023-05-07T04:22:41;99228.25;;;14.77;48.24
80149;BME280;69473;42.426;26.644;2023-05-07T04:25:07;99226.34;;;14.85;48.10
80149;BME280;69473;42.426;26.644;2023-05-07T04:27:34;99225.13;;;15.06;46.85
80149;BME280;69473;42.426;26.644;2023-05-07T04:30:00;99229.34;;;15.15;46.73
80149;BME280;69473;42.426;26.644;2023-05-07T04:32:26;99231.06;;;15.16;46.58
80149;BME280;69473;42.426;26.644;2023-05-07T04:34:52;99221.41;;;15.19;46.69
80149;BME280;69473;42.426;26.644;2023-05-07T04:37:17;99221.50;;;15.15;46.56
80149;BME280;69473;42.426;26.644;2023-05-07T04:39:43;99222.00;;;15.35;45.72
80149;BME280;69473;42.426;26.644;2023-05-07T04:42:09;99237.59;;;15.38;46.17
80149;BME280;69473;42.426;26.644;2023-05-07T04:44:35;99237.44;;;15.47;46.04
80149;BME280;69473;42.426;26.644;2023-05-07T04:47:02;99233.84;;;15.55;45.60
80149;BME280;69473;42.426;26.644;2023-05-07T04:49:28;99237.66;;;15.83;44.60
80149;BME280;69473;42.426;26.644;2023-05-07T04:51:53;99240.28;;;15.83;45.21
80149;BME280;69473;42.426;26.644;2023-05-07T04:54:19;99241.53;;;16.06;44.79
80149;BME280;69473;42.426;26.644;2023-05-07T04:56:44;99240.63;;;16.08;44.78
80149;BME280;69473;42.426;26.644;2023-05-07T04:59:10;99241.00;;;16.30;44.29
80149;BME280;69473;42.426;26.644;2023-05-07T05:01:35;99215.06;;;16.21;43.60
80149;BME280;69473;42.426;26.644;2023-05-07T05:04:01;99239.06;;;16.38;43.21
80149;BME280;69473;42.426;26.644;2023-05-07T05:06:26;99240.59;;;16.49;43.57
80149;BME280;69473;42.426;26.644;2023-05-07T05:08:52;99248.84;;;16.69;43.14
80149;BME280;69473;42.426;26.644;2023-05-07T05:11:17;99241.63;;;16.80;43.21
80149;BME280;69473;42.426;26.644;2023-05-07T05:13:43;99239.91;;;16.79;43.57
80149;BME280;69473;42.426;26.644;2023-05-07T05:16:08;99254.03;;;17.08;42.94
80149;BME280;69473;42.426;26.644;2023-05-07T05:18:34;99252.75;;;17.24;41.64
80149;BME280;69473;42.426;26.644;2023-05-07T05:21:00;99254.53;;;17.22;42.81
80149;BME280;69473;42.426;26.644;2023-05-07T05:23:25;99250.72;;;17.36;42.29
80149;BME280;69473;42.426;26.644;2023-05-07T05:25:58;99254.59;;;17.53;42.45
80149;BME280;69473;42.426;26.644;2023-05-07T05:28:24;99232.94;;;17.47;42.07
80149;BME280;69473;42.426;26.644;2023-05-07T05:30:50;99267.16;;;17.73;41.31
80149;BME280;69473;42.426;26.644;2023-05-07T05:33:15;99265.03;;;17.88;40.69
80149;BME280;69473;42.426;26.644;2023-05-07T05:35:42;99269.94;;;18.00;40.30
80149;BME280;69473;42.426;26.644;2023-05-07T05:38:08;99266.25;;;18.07;40.86
80149;BME280;69473;42.426;26.644;2023-05-07T05:40:33;99255.03;;;18.32;39.63
80149;BME280;69473;42.426;26.644;2023-05-07T05:42:59;99278.97;;;18.79;39.07
80149;BME280;69473;42.426;26.644;2023-05-07T05:45:25;99272.81;;;19.33;37.47
80149;BME280;69473;42.426;26.644;2023-05-07T05:47:51;99279.59;;;20.14;36.34
80149;BME280;69473;42.426;26.644;2023-05-07T05:50:16;99270.72;;;20.85;35.16
80149;BME280;69473;42.426;26.644;2023-05-07T05:52:42;99275.81;;;21.73;33.41
80149;BME280;69473;42.426;26.644;2023-05-07T05:55:08;99273.72;;;22.40;32.03
80149;BME280;69473;42.426;26.644;2023-05-07T05:57:34;99271.03;;;22.96;31.61
80149;BME280;69473;42.426;26.644;2023-05-07T06:00:00;99270.38;;;23.27;31.19
80149;BME280;69473;42.426;26.644;2023-05-07T06:02:26;99271.91;;;23.32;30.69
80149;BME280;69473;42.426;26.644;2023-05-07T06:04:52;99271.31;;;23.44;30.86
80149;BME280;69473;42.426;26.644;2023-05-07T06:07:17;99269.91;;;23.71;30.39
80149;BME280;69473;42.426;26.644;2023-05-07T06:09:43;99270.34;;;23.80;29.95
80149;BME280;69473;42.426;26.644;2023-05-07T06:12:08;99279.25;;;24.28;30.28
80149;BME280;69473;42.426;26.644;2023-05-07T06:14:34;99275.63;;;24.78;29.68
80149;BME280;69473;42.426;26.644;2023-05-07T06:16:59;99276.81;;;25.34;28.90
80149;BME280;69473;42.426;26.644;2023-05-07T06:19:25;99277.59;;;25.50;28.63
80149;BME280;69473;42.426;26.644;2023-05-07T06:21:52;99277.50;;;25.82;27.87
80149;BME280;69473;42.426;26.644;2023-05-07T06:24:17;99272.19;;;25.82;27.56
80149;BME280;69473;42.426;26.644;2023-05-07T06:26:43;99275.03;;;25.93;26.91
80149;BME280;69473;42.426;26.644;2023-05-07T06:29:08;99276.34;;;26.58;26.53
80149;BME280;69473;42.426;26.644;2023-05-07T06:31:35;99271.97;;;26.42;26.43
80149;BME280;69473;42.426;26.644;2023-05-07T06:34:01;99274.72;;;26.41;26.22
80149;BME280;69473;42.426;26.644;2023-05-07T06:36:28;99275.00;;;26.65;25.89
80149;BME280;69473;42.426;26.644;2023-05-07T06:38:53;99266.91;;;26.93;25.35
80149;BME280;69473;42.426;26.644;2023-05-07T06:41:19;99280.38;;;27.05;25.00
80149;BME280;69473;42.426;26.644;2023-05-07T06:43:46;99270.91;;;27.66;25.27
80149;BME280;69473;42.426;26.644;2023-05-07T06:46:11;99271.53;;;27.57;24.20
80149;BME280;69473;42.426;26.644;2023-05-07T06:48:37;99273.50;;;27.93;23.79
80149;BME280;69473;42.426;26.644;2023-05-07T06:51:03;99276.50;;;28.01;24.61
80149;BME280;69473;42.426;26.644;2023-05-07T06:53:28;99275.88;;;27.98;24.18
80149;BME280;69473;42.426;26.644;2023-05-07T06:55:56;99266.03;;;28.11;23.19
80149;BME280;69473;42.426;26.644;2023-05-07T06:58:22;99273.75;;;28.40;23.60
80149;BME280;69473;42.426;26.644;2023-05-07T07:00:47;99273.50;;;28.92;23.12
80149;BME280;69473;42.426;26.644;2023-05-07T07:03:13;99284.06;;;29.53;22.90
80149;BME280;69473;42.426;26.644;2023-05-07T07:05:41;99282.06;;;29.33;22.43
80149;BME280;69473;42.426;26.644;2023-05-07T07:08:07;99282.81;;;29.46;22.82
80149;BME280;69473;42.426;26.644;2023-05-07T07:10:32;99280.03;;;29.83;22.09
80149;BME280;69473;42.426;26.644;2023-05-07T07:12:58;99272.28;;;30.36;21.37
80149;BME280;69473;42.426;26.644;2023-05-07T07:15:24;99239.00;;;30.06;20.99
80149;BME280;69473;42.426;26.644;2023-05-07T07:17:51;99272.41;;;30.23;20.73
80149;BME280;69473;42.426;26.644;2023-05-07T07:20:16;99276.91;;;30.45;20.79
80149;BME280;69473;42.426;26.644;2023-05-07T07:22:42;99284.28;;;31.08;19.83
80149;BME280;69473;42.426;26.644;2023-05-07T07:25:08;99285.31;;;30.95;19.94
80149;BME280;69473;42.426;26.644;2023-05-07T07:27:33;99285.94;;;31.73;20.00
80149;BME280;69473;42.426;26.644;2023-05-07T07:29:59;99281.06;;;30.93;20.57
80149;BME280;69473;42.426;26.644;2023-05-07T07:32:25;99295.16;;;31.38;20.21
80149;BME280;69473;42.426;26.644;2023-05-07T07:34:51;99289.19;;;31.56;20.45
80149;BME280;69473;42.426;26.644;2023-05-07T07:37:16;99299.91;;;31.56;20.33
80149;BME280;69473;42.426;26.644;2023-05-07T07:39:42;99292.78;;;30.69;21.37
80149;BME280;69473;42.426;26.644;2023-05-07T07:42:07;99299.34;;;27.66;24.06
80149;BME280;69473;42.426;26.644;2023-05-07T07:44:33;99304.19;;;25.65;26.93
80149;BME280;69473;42.426;26.644;2023-05-07T07:46:58;99295.72;;;23.84;28.59
80149;BME280;69473;42.426;26.644;2023-05-07T07:49:24;99304.03;;;22.88;29.82
80149;BME280;69473;42.426;26.644;2023-05-07T07:51:49;99292.34;;;22.36;32.29
80149;BME280;69473;42.426;26.644;2023-05-07T07:54:16;99305.31;;;22.22;33.17
80149;BME280;69473;42.426;26.644;2023-05-07T07:56:41;99310.28;;;22.09;34.53
80149;BME280;69473;42.426;26.644;2023-05-07T07:59:07;99293.59;;;22.09;33.87
80149;BME280;69473;42.426;26.644;2023-05-07T08:01:32;99306.19;;;22.02;33.57
80149;BME280;69473;42.426;26.644;2023-05-07T08:03:58;99308.22;;;21.96;34.16
80149;BME280;69473;42.426;26.644;2023-05-07T08:06:24;99312.22;;;21.85;32.12
80149;BME280;69473;42.426;26.644;2023-05-07T08:08:51;99309.44;;;21.88;32.89
80149;BME280;69473;42.426;26.644;2023-05-07T08:11:17;99293.63;;;21.68;33.47
80149;BME280;69473;42.426;26.644;2023-05-07T08:13:43;99307.78;;;21.86;33.84
80149;BME280;69473;42.426;26.644;2023-05-07T08:16:09;99303.75;;;21.77;33.26
80149;BME280;69473;42.426;26.644;2023-05-07T08:18:34;99300.63;;;21.69;32.16
80149;BME280;69473;42.426;26.644;2023-05-07T08:21:01;99311.09;;;21.91;32.35
80149;BME280;69473;42.426;26.644;2023-05-07T08:23:26;99320.94;;;21.87;31.30
80149;BME280;69473;42.426;26.644;2023-05-07T08:25:52;99307.72;;;21.87;32.24
80149;BME280;69473;42.426;26.644;2023-05-07T08:28:18;99319.19;;;21.86;33.31
80149;BME280;69473;42.426;26.644;2023-05-07T08:30:45;99307.72;;;21.67;32.64
80149;BME280;69473;42.426;26.644;2023-05-07T08:33:10;99299.25;;;21.81;33.10
80149;BME280;69473;42.426;26.644;2023-05-07T08:35:36;99299.97;;;21.84;33.30
80149;BME280;69473;42.426;26.644;2023-05-07T08:38:01;99306.81;;;21.88;31.42
80149;BME280;69473;42.426;26.644;2023-05-07T08:40:28;99312.06;;;21.88;32.14
80149;BME280;69473;42.426;26.644;2023-05-07T08:42:56;99310.25;;;21.90;31.96
80149;BME280;69473;42.426;26.644;2023-05-07T08:45:22;99310.09;;;21.94;32.92
80149;BME280;69473;42.426;26.644;2023-05-07T08:47:52;99311.41;;;22.04;32.94
80149;BME280;69473;42.426;26.644;2023-05-07T08:50:21;99306.81;;;21.88;32.67
80149;BME280;69473;42.426;26.644;2023-05-07T08:52:47;99304.81;;;21.94;30.88
80149;BME280;69473;42.426;26.644;2023-05-07T08:55:13;99294.28;;;21.94;31.96
80149;BME280;69473;42.426;26.644;2023-05-07T08:57:39;99296.50;;;22.03;30.72
80149;BME280;69473;42.426;26.644;2023-05-07T09:00:05;99300.00;;;22.03;32.00
80149;BME280;69473;42.426;26.644;2023-05-07T09:02:34;99293.50;;;22.31;31.52
80149;BME280;69473;42.426;26.644;2023-05-07T09:05:00;99296.13;;;21.91;32.80
80149;BME280;69473;42.426;26.644;2023-05-07T09:07:26;99286.06;;;22.20;30.92
80149;BME280;69473;42.426;26.644;2023-05-07T09:09:52;99283.50;;;22.19;30.31
80149;BME280;69473;42.426;26.644;2023-05-07T09:12:18;99284.88;;;22.07;31.02
80149;BME280;69473;42.426;26.644;2023-05-07T09:14:45;99285.50;;;22.32;30.73
80149;BME280;69473;42.426;26.644;2023-05-07T09:17:11;99285.50;;;22.32;31.38
80149;BME280;69473;42.426;26.644;2023-05-07T09:19:37;99285.22;;;22.39;29.77
80149;BME280;69473;42.426;26.644;2023-05-07T09:22:05;99289.06;;;22.31;29.37
80149;BME280;69473;42.426;26.644;2023-05-07T09:24:32;99292.56;;;22.11;29.08
80149;BME280;69473;42.426;26.644;2023-05-07T09:27:01;99274.19;;;22.10;30.95
80149;BME280;69473;42.426;26.644;2023-05-07T09:29:28;99274.22;;;22.29;30.86
80149;BME280;69473;42.426;26.644;2023-05-07T09:32:05;99276.34;;;22.40;30.23
80149;BME280;69473;42.426;26.644;2023-05-07T09:34:31;99260.22;;;22.46;30.38
80149;BME280;69473;42.426;26.644;2023-05-07T09:37:03;99254.25;;;22.23;28.91
80149;BME280;69473;42.426;26.644;2023-05-07T09:39:49;99275.00;;;21.91;31.34
80149;BME280;69473;42.426;26.644;2023-05-07T09:42:15;99258.09;;;22.16;30.34
80149;BME280;69473;42.426;26.644;2023-05-07T09:44:41;99257.72;;;22.24;30.49
80149;BME280;69473;42.426;26.644;2023-05-07T09:47:10;99266.97;;;22.34;30.17
80149;BME280;69473;42.426;26.644;2023-05-07T09:49:39;99255.38;;;22.55;30.33
80149;BME280;69473;42.426;26.644;2023-05-07T09:52:07;99262.38;;;22.38;30.91
80149;BME280;69473;42.426;26.644;2023-05-07T09:54:36;99262.25;;;22.41;31.38
80149;BME280;69473;42.426;26.644;2023-05-07T09:57:04;99262.38;;;22.38;32.14
80149;BME280;69473;42.426;26.644;2023-05-07T09:59:32;99243.19;;;22.15;30.96
80149;BME280;69473;42.426;26.644;2023-05-07T10:01:59;99257.03;;;22.20;30.48
80149;BME280;69473;42.426;26.644;2023-05-07T10:04:25;99245.25;;;22.27;30.67
80149;BME280;69473;42.426;26.644;2023-05-07T10:06:52;99243.31;;;22.12;31.38
80149;BME280;69473;42.426;26.644;2023-05-07T10:09:20;99250.59;;;22.45;30.66
80149;BME280;69473;42.426;26.644;2023-05-07T10:11:48;99251.03;;;22.35;30.74
80149;BME280;69473;42.426;26.644;2023-05-07T10:14:15;99244.81;;;22.36;30.59
80149;BME280;69473;42.426;26.644;2023-05-07T10:16:41;99242.97;;;22.39;30.01
80149;BME280;69473;42.426;26.644;2023-05-07T10:19:08;99236.84;;;22.38;31.20
80149;BME280;69473;42.426;26.644;2023-05-07T10:21:42;99237.66;;;22.57;29.56
80149;BME280;69473;42.426;26.644;2023-05-07T10:24:13;99225.13;;;22.44;29.04
80149;BME280;69473;42.426;26.644;2023-05-07T10:26:44;99219.56;;;22.50;29.33
80149;BME280;69473;42.426;26.644;2023-05-07T10:35:14;99230.97;;;22.50;29.84
80149;BME280;69473;42.426;26.644;2023-05-07T10:37:41;99227.50;;;22.50;28.95
80149;BME280;69473;42.426;26.644;2023-05-07T10:40:09;99223.25;;;22.46;29.59
80149;BME280;69473;42.426;26.644;2023-05-07T10:42:35;99224.13;;;22.65;29.62
80149;BME280;69473;42.426;26.644;2023-05-07T10:45:14;99224.84;;;22.50;29.45
80149;BME280;69473;42.426;26.644;2023-05-07T10:48:20;99234.41;;;22.52;30.50
80149;BME280;69473;42.426;26.644;2023-05-07T10:50:46;99229.84;;;22.56;29.54
80149;BME280;69473;42.426;26.644;2023-05-07T10:55:43;99221.22;;;22.52;28.99
80149;BME280;69473;42.426;26.644;2023-05-07T10:58:28;99227.53;;;21.91;30.08
80149;BME280;69473;42.426;26.644;2023-05-07T11:01:01;99224.34;;;22.42;29.72
80149;BME280;69473;42.426;26.644;2023-05-07T11:03:28;99226.81;;;22.64;32.77
80149;BME280;69473;42.426;26.644;2023-05-07T11:11:17;99205.34;;;21.96;29.26
80149;BME280;69473;42.426;26.644;2023-05-07T11:13:46;99214.38;;;22.29;30.18
80149;BME280;69473;42.426;26.644;2023-05-07T11:16:23;99215.41;;;22.63;30.35
80149;BME280;69473;42.426;26.644;2023-05-07T11:18:52;99209.22;;;22.81;28.97
80149;BME280;69473;42.426;26.644;2023-05-07T11:21:38;99216.03;;;22.86;30.35
80149;BME280;69473;42.426;26.644;2023-05-07T11:24:05;99210.91;;;22.82;29.33
80149;BME280;69473;42.426;26.644;2023-05-07T11:26:50;99211.72;;;23.02;29.96
80149;BME280;69473;42.426;26.644;2023-05-07T11:29:18;99211.00;;;22.81;27.96
80149;BME280;69473;42.426;26.644;2023-05-07T11:31:51;99205.22;;;22.73;29.49
80149;BME280;69473;42.426;26.644;2023-05-07T11:34:25;99205.94;;;22.76;28.62
80149;BME280;69473;42.426;26.644;2023-05-07T11:36:52;99218.25;;;22.95;29.33
80149;BME280;69473;42.426;26.644;2023-05-07T11:39:32;99209.50;;;22.93;27.22
80149;BME280;69473;42.426;26.644;2023-05-07T11:42:02;99210.22;;;22.79;28.24
80149;BME280;69473;42.426;26.644;2023-05-07T11:44:41;99212.50;;;22.87;28.99
80149;BME280;69473;42.426;26.644;2023-05-07T11:47:07;99195.66;;;22.70;28.47
80149;BME280;69473;42.426;26.644;2023-05-07T11:49:34;99194.13;;;22.66;28.00
80149;BME280;69473;42.426;26.644;2023-05-07T11:51:59;99184.00;;;22.57;28.44
80149;BME280;69473;42.426;26.644;2023-05-07T11:54:25;99195.22;;;22.79;29.12
80149;BME280;69473;42.426;26.644;2023-05-07T11:56:51;99188.63;;;22.88;29.85
80149;BME280;69473;42.426;26.644;2023-05-07T11:59:17;99190.91;;;22.96;30.63
80149;BME280;69473;42.426;26.644;2023-05-07T12:01:45;99185.72;;;22.93;29.35
80149;BME280;69473;42.426;26.644;2023-05-07T12:04:11;99178.75;;;22.74;27.53
80149;BME280;69473;42.426;26.644;2023-05-07T12:06:37;99169.50;;;22.29;29.18
80149;BME280;69473;42.426;26.644;2023-05-07T12:09:03;99186.72;;;22.55;30.51
80149;BME280;69473;42.426;26.644;2023-05-07T12:11:30;99181.94;;;22.81;29.84
80149;BME280;69473;42.426;26.644;2023-05-07T12:13:55;99177.78;;;22.94;29.54
80149;BME280;69473;42.426;26.644;2023-05-07T12:16:21;99170.66;;;22.60;29.51
80149;BME280;69473;42.426;26.644;2023-05-07T12:18:47;99165.69;;;22.89;30.51
80149;BME280;69473;42.426;26.644;2023-05-07T12:21:13;99163.53;;;22.79;30.57
80149;BME280;69473;42.426;26.644;2023-05-07T12:23:39;99159.97;;;22.80;28.25
80149;BME280;69473;42.426;26.644;2023-05-07T12:26:05;99169.25;;;22.70;28.05
80149;BME280;69473;42.426;26.644;2023-05-07T12:28:36;99165.31;;;22.43;28.33
80149;BME280;69473;42.426;26.644;2023-05-07T12:31:03;99156.06;;;22.53;30.25
80149;BME280;69473;42.426;26.644;2023-05-07T12:33:29;99160.03;;;22.43;31.55
80149;BME280;69473;42.426;26.644;2023-05-07T12:35:56;99153.94;;;22.04;31.73
80149;BME280;69473;42.426;26.644;2023-05-07T12:38:21;99151.88;;;22.11;32.31
80149;BME280;69473;42.426;26.644;2023-05-07T12:40:50;99151.91;;;22.47;31.67
80149;BME280;69473;42.426;26.644;2023-05-07T12:43:29;99145.84;;;22.45;30.42
80149;BME280;69473;42.426;26.644;2023-05-07T12:46:01;99141.09;;;22.34;29.89
80149;BME280;69473;42.426;26.644;2023-05-07T12:48:28;99129.69;;;22.34;31.01
80149;BME280;69473;42.426;26.644;2023-05-07T12:50:55;99135.28;;;22.09;32.00
80149;BME280;69473;42.426;26.644;2023-05-07T12:53:22;99146.09;;;21.65;32.53
80149;BME280;69473;42.426;26.644;2023-05-07T12:55:51;99149.94;;;21.96;33.19
80149;BME280;69473;42.426;26.644;2023-05-07T12:58:19;99149.22;;;22.11;31.83
80149;BME280;69473;42.426;26.644;2023-05-07T13:00:48;99146.69;;;21.90;31.93
80149;BME280;69473;42.426;26.644;2023-05-07T13:03:34;99131.84;;;21.88;31.90